Axtell, TX

1:11 AM CDT on May 06, 2015 (GMT -0500)
KTXWEST5 | | Change Station
CLOSE
Current Station
Personal Weather Station
Location: West, TX
Elevation: 587 ft
Nearby Weather Stations

Elev 587 ft 31.75 °N, 97.12 °W | Updated 1 second ago

Rain
Rain
70.1 °F
Feels Like 70.1 °F
N
7.0
Wind Variable Wind from SSE
Gusts 15.0 mph

Today
High -- | Low -- °F
--% Chance of Precip.
Yesterday
High -- | Low -- °F
Precip. -- in
6:38 AM 8:11 PM
Waning Gibbous, 95% visible
Pressure 29.94 in
Visibility 10.0 miles
Clouds Few 4800 ft
Mostly Cloudy 6500 ft
Dew Point 68 °F
Humidity 94%
Rainfall 0.00 in
Snow Depth Not available.
UV 0.0 out of 12
Pollen 5.90 out of 12
Air Quality Not available.
Flu Activity Sporadic
METAR KACT 060551Z 15012KT 10SM FEW048 BKN065 22/19 A2996 RMK AO2 RAB0453E13 SLP138 P0001 60001 T02170194 10267 20217 402940161 50009

More Conditions Fewer Conditions

Pressure 29.94 in
Visibility 10.0 miles
Clouds Few 4800 ft
Mostly Cloudy 6500 ft
Dew Point 68 °F
Humidity 94%
Rainfall 0.00 in
Snow Depth Not available.
UV 0.0 out of 12
Pollen 5.90 out of 12
Air Quality Not available.
Flu Activity Sporadic
METAR KACT 060551Z 15012KT 10SM FEW048 BKN065 22/19 A2996 RMK AO2 RAB0453E13 SLP138 P0001 60001 T02170194 10267 20217 402940161 50009

More Conditions Fewer Conditions

Nowcast | as of 11:56 PM CDT on May 5, 2015

Showers and thunderstorms will continue in areas mainly north of the I-20 corridor overnight. Heavy rain...gusty winds...and frequent cloud-to-ground lightning will be the primary hazards with the storms. Hourly rainfall amounts will exceed 1/2 inch under the heavier downpours. The activity will gradually shift east early this morning. Showers and thunderstorms tonight will also affect portions of central Texas...where heavy rain will be possible. Elsewhere... intermittent showers will occur. Motorists are urged to exercise caution if venturing out tonight. Reduce speed on slick roads and in areas of reduced visibility.

×

10-Day Weather Forecast

Almanac

Astronomy

May. 06, 2015 Rise Set
Actual Time
Civil Twilight
Nautical Twilight
Astronomical Twilight
Moon
Length of Visible Light
Length of Day
Tomorrow will be .
, % of the Moon is Illuminated

Today's Extremes

State Highs State Lows

Community

WunderPhotos

Upload Photos

1,818,848 photos uploaded!

WunderBlogs® & News

Nearby

Air Quality

  Air Quality AQ Index Pollutant
Not available.

Snow Depth

Station Depth Elevation

Earthquake Activity

City Distance Mag. Time & Date
Minimum magnitude displayed is 2.5.

Coastal Water Temperatures

Place Temperature

Stations

Nearby Weather Stations

Station Location Temp. Windchill Dew Point Humidity Wind Precip. Elev Updated Type